createdAt,value
2019-04-22T00:01:13.684Z,15.37
2019-04-22T00:03:49.761Z,14.93
2019-04-22T00:06:30.816Z,14.63
2019-04-22T00:09:05.511Z,14.07
2019-04-22T00:11:38.383Z,14.43
2019-04-22T00:14:06.752Z,14.90
2019-04-22T00:16:48.781Z,14.77
2019-04-22T00:21:47.671Z,14.43
2019-04-22T00:24:10.658Z,15.40
2019-04-22T00:26:50.215Z,13.93
2019-04-22T00:29:40.769Z,13.77
2019-04-22T00:32:00.021Z,14.27
2019-04-22T00:34:29.396Z,13.13
2019-04-22T00:37:00.666Z,13.37
2019-04-22T00:39:52.055Z,13.60
2019-04-22T00:42:09.976Z,14.13
2019-04-22T00:44:41.677Z,14.23
2019-04-22T00:47:17.969Z,13.23
2019-04-22T00:52:28.065Z,13.33
2019-04-22T00:54:49.541Z,14.10
2019-04-22T00:57:15.362Z,13.00
2019-04-22T00:59:45.661Z,13.33
2019-04-22T01:02:22.994Z,12.53
2019-04-22T01:05:09.769Z,13.83
2019-04-22T01:07:17.595Z,12.80
2019-04-22T01:12:26.333Z,12.83
2019-04-22T01:14:55.594Z,13.47
2019-04-22T01:17:27.728Z,13.33
2019-04-22T01:20:13.079Z,13.60
2019-04-22T01:22:27.128Z,12.80
2019-04-22T01:24:56.139Z,13.50
2019-04-22T01:27:22.198Z,12.93
2019-04-22T01:29:51.748Z,12.50
2019-04-22T01:32:17.607Z,13.17
2019-04-22T01:35:00.644Z,11.93
2019-04-22T01:37:28.798Z,12.47
2019-04-22T01:40:09.771Z,10.80
2019-04-22T01:42:39.750Z,11.77
2019-04-22T01:45:13.995Z,11.83
2019-04-22T01:47:46.682Z,11.50
2019-04-22T01:50:15.833Z,12.33
2019-04-22T01:52:46.773Z,11.50
2019-04-22T01:57:47.723Z,9.70
2019-04-22T02:00:11.463Z,12.97
2019-04-22T02:02:48.788Z,14.23
2019-04-22T02:07:54.298Z,12.40
2019-04-22T02:10:32.332Z,11.60
2019-04-22T02:12:55.003Z,11.90
2019-04-22T02:15:28.677Z,12.40
2019-04-22T02:18:03.232Z,11.50
2019-04-22T02:20:32.939Z,12.35
2019-04-22T02:46:41.283Z,10.50
2019-04-22T02:51:26.253Z,11.00
2019-04-22T02:54:22.243Z,11.13
2019-04-22T02:59:03.927Z,10.40
2019-04-22T03:01:30.093Z,10.80
2019-04-22T03:06:34.820Z,11.73
2019-04-22T03:09:03.896Z,10.90
2019-04-22T03:11:33.426Z,10.37
2019-04-22T03:14:13.298Z,10.87
2019-04-22T03:26:43.721Z,12.57
2019-04-22T03:29:13.325Z,12.93
2019-04-22T03:37:23.283Z,12.00
2019-04-22T03:42:07.465Z,13.03
2019-04-22T03:44:39.113Z,12.50
2019-04-22T03:49:47.482Z,12.20
2019-04-22T03:57:33.144Z,10.83
2019-04-22T03:59:41.537Z,12.03
2019-04-22T04:12:23.749Z,12.73
2019-04-22T04:14:57.963Z,13.53
2019-04-22T04:17:20.729Z,12.13
2019-04-22T04:27:43.692Z,13.17
2019-04-22T04:30:08.322Z,12.57
2019-04-22T04:35:12.655Z,12.97
2019-04-22T04:40:25.100Z,12.60
2019-04-22T04:52:52.501Z,13.13
2019-04-22T04:55:18.060Z,12.20
2019-04-22T05:02:44.729Z,13.73
2019-04-22T05:05:34.977Z,14.47
2019-04-22T05:07:48.544Z,14.20
2019-04-22T05:15:18.495Z,13.60
2019-04-22T05:17:55.475Z,14.87
2019-04-22T05:20:26.963Z,14.63
2019-04-22T05:23:01.812Z,14.57
2019-04-22T05:25:19.586Z,14.53
2019-04-22T05:27:52.150Z,14.43
2019-04-22T05:30:35.876Z,14.97
2019-04-22T05:32:47.382Z,13.93
2019-04-22T05:37:56.614Z,14.63
2019-04-22T05:40:24.555Z,14.23
2019-04-22T05:42:56.375Z,14.70
2019-04-22T05:45:28.266Z,14.70
2019-04-22T05:47:57.566Z,15.80
2019-04-22T05:50:22.806Z,14.33
2019-04-22T05:53:03.382Z,12.70
2019-04-22T05:55:36.324Z,13.47
2019-04-22T05:58:02.800Z,13.23
2019-04-22T06:01:05.621Z,13.67
2019-04-22T06:03:20.904Z,12.47
2019-04-22T06:05:45.263Z,12.10
2019-04-22T06:08:10.220Z,13.03
2019-04-22T06:10:48.572Z,12.13
2019-04-22T06:13:14.618Z,14.53
2019-04-22T06:15:49.287Z,21.37
2019-04-22T06:18:23.925Z,12.03
2019-04-22T06:23:26.105Z,13.43
2019-04-22T06:28:36.999Z,13.07
2019-04-22T06:31:02.562Z,13.07
2019-04-22T06:33:34.670Z,13.27
2019-04-22T06:36:05.119Z,14.50
2019-04-22T06:41:08.609Z,14.00
2019-04-22T06:43:38.523Z,14.47
2019-04-22T06:46:09.888Z,14.50
2019-04-22T06:48:36.254Z,14.17
2019-04-22T06:51:08.222Z,15.23
2019-04-22T06:53:41.889Z,14.67
2019-04-22T06:56:12.490Z,13.97
2019-04-22T06:58:39.902Z,14.70
2019-04-22T07:01:18.201Z,14.60
2019-04-22T07:03:48.276Z,13.90
2019-04-22T07:06:33.439Z,13.70
2019-04-22T07:11:16.816Z,15.13
2019-04-22T07:13:50.358Z,15.73
2019-04-22T07:16:30.249Z,15.70
2019-04-22T07:21:24.313Z,15.07
2019-04-22T07:24:02.934Z,17.27
2019-04-22T07:26:39.636Z,17.30
2019-04-22T07:28:56.450Z,16.77
2019-04-22T07:31:42.903Z,16.57
2019-04-22T07:33:58.469Z,15.43
2019-04-22T07:39:05.567Z,15.90
2019-04-22T07:41:32.885Z,15.83
2019-04-22T07:44:13.893Z,15.30
2019-04-22T07:51:41.090Z,15.73
2019-04-22T07:54:06.509Z,15.07
2019-04-22T07:56:42.771Z,13.70
2019-04-22T07:59:09.599Z,13.60
2019-04-22T08:01:41.908Z,12.60
2019-04-22T08:04:22.899Z,12.97
2019-04-22T08:09:20.287Z,12.57
2019-04-22T08:11:49.933Z,11.93
2019-04-22T08:14:22.490Z,13.37
2019-04-22T08:16:51.995Z,15.63
2019-04-22T08:19:23.133Z,12.57
2019-04-22T08:21:50.659Z,12.50
2019-04-22T08:24:22.738Z,12.13
2019-04-22T08:26:59.349Z,11.90
2019-04-22T08:34:25.910Z,11.67
2019-04-22T08:37:37.054Z,12.27
2019-04-22T08:39:33.161Z,11.33
2019-04-22T08:42:13.887Z,10.97
2019-04-22T08:45:08.128Z,11.20
2019-04-22T08:49:50.834Z,11.40
2019-04-22T08:52:16.296Z,10.87
2019-04-22T08:54:44.598Z,10.57
2019-04-22T08:57:18.307Z,9.87
2019-04-22T08:59:48.958Z,10.57
2019-04-22T09:02:23.012Z,9.53
2019-04-22T09:04:48.026Z,9.90
2019-04-22T09:07:28.399Z,8.77
2019-04-22T09:09:53.667Z,8.67
2019-04-22T09:12:23.970Z,8.80
2019-04-22T09:14:52.057Z,8.53
2019-04-22T09:17:39.827Z,8.73
2019-04-22T09:22:27.222Z,9.27
2019-04-22T09:24:57.322Z,9.70
2019-04-22T09:27:37.132Z,9.50
2019-04-22T09:30:01.149Z,9.17
2019-04-22T09:32:33.153Z,8.90
2019-04-22T09:35:02.615Z,9.77
2019-04-22T09:37:38.977Z,9.13
2019-04-22T09:40:11.913Z,9.03
2019-04-22T09:42:39.749Z,8.47
2019-04-22T09:50:08.240Z,9.67
2019-04-22T09:52:45.663Z,10.20
2019-04-22T09:55:18.322Z,9.07
2019-04-22T09:57:47.101Z,8.10
2019-04-22T10:00:16.953Z,9.40
2019-04-22T10:02:55.403Z,9.10
2019-04-22T10:05:21.107Z,10.23
2019-04-22T10:07:54.823Z,10.33
2019-04-22T10:12:54.304Z,8.50
2019-04-22T10:15:23.343Z,10.00
2019-04-22T10:17:58.219Z,9.93
2019-04-22T10:20:27.000Z,8.83
2019-04-22T10:23:03.787Z,8.03
2019-04-22T10:25:30.160Z,7.80
2019-04-22T10:28:01.600Z,7.90
2019-04-22T10:30:39.300Z,8.43
2019-04-22T10:33:00.787Z,6.87
2019-04-22T10:35:17.198Z,8.10
2019-04-22T10:37:42.715Z,6.70
2019-04-22T10:40:19.591Z,7.00
2019-04-22T10:42:51.432Z,7.10
2019-04-22T10:45:21.988Z,7.20
2019-04-22T10:47:52.246Z,7.67
2019-04-22T10:50:26.291Z,8.03
2019-04-22T10:52:55.786Z,8.93
2019-04-22T10:55:25.752Z,8.13
2019-04-22T10:57:55.269Z,7.43
2019-04-22T11:00:24.751Z,7.10
2019-04-22T11:02:54.209Z,6.53
2019-04-22T11:05:24.125Z,6.60
2019-04-22T11:07:59.040Z,6.47
2019-04-22T11:10:37.046Z,6.57
2019-04-22T11:12:56.821Z,6.13
2019-04-22T11:15:26.730Z,5.93
2019-04-22T11:17:57.652Z,6.03
2019-04-22T11:20:27.697Z,6.17
2019-04-22T11:22:58.262Z,6.70
2019-04-22T11:25:29.834Z,6.07
2019-04-22T11:28:00.012Z,6.50
2019-04-22T11:30:30.558Z,7.97
2019-04-22T11:33:00.467Z,7.00
2019-04-22T11:35:30.168Z,6.93
2019-04-22T11:38:01.127Z,6.93
2019-04-22T11:40:37.876Z,8.40
2019-04-22T11:43:03.904Z,6.90
2019-04-22T11:45:33.651Z,8.23
2019-04-22T11:48:03.582Z,6.67
2019-04-22T11:50:33.635Z,6.20
2019-04-22T11:53:03.113Z,5.93
2019-04-22T11:55:32.953Z,5.83
2019-04-22T11:58:03.058Z,6.33
2019-04-22T12:00:36.987Z,6.40
2019-04-22T12:03:07.317Z,6.50
2019-04-22T12:05:37.572Z,6.30
2019-04-22T12:08:09.145Z,6.87
2019-04-22T12:10:48.293Z,5.83
2019-04-22T12:13:10.351Z,5.77
2019-04-22T12:15:40.807Z,6.50
2019-04-22T12:18:11.232Z,5.53
2019-04-22T12:20:41.466Z,5.93
2019-04-22T12:23:11.192Z,5.50
2019-04-22T12:25:51.653Z,6.10
2019-04-22T12:28:15.080Z,5.97
2019-04-22T12:30:45.715Z,5.90
2019-04-22T12:33:16.948Z,6.00
2019-04-22T12:35:46.565Z,6.00
2019-04-22T12:38:17.029Z,6.03
2019-04-22T12:40:55.337Z,6.20
2019-04-22T12:43:22.150Z,6.30
2019-04-22T12:45:51.980Z,6.10
2019-04-22T12:48:23.130Z,5.90
2019-04-22T12:50:55.960Z,6.40
2019-04-22T12:53:26.338Z,6.57
2019-04-22T12:55:55.869Z,5.57
2019-04-22T12:58:27.678Z,6.27
2019-04-22T13:00:57.250Z,6.27
2019-04-22T13:03:26.679Z,5.83
2019-04-22T13:05:57.401Z,6.03
2019-04-22T13:08:27.611Z,5.60
2019-04-22T13:11:02.952Z,5.70
2019-04-22T13:13:29.038Z,5.77
2019-04-22T13:15:59.341Z,5.20
2019-04-22T13:18:37.282Z,5.77
2019-04-22T13:21:00.424Z,5.40
2019-04-22T13:23:29.975Z,5.53
2019-04-22T13:26:00.901Z,5.90
2019-04-22T13:28:31.469Z,6.57
2019-04-22T13:31:02.033Z,6.27
2019-04-22T13:33:32.903Z,5.30
2019-04-22T13:36:03.773Z,6.27
2019-04-22T13:38:33.349Z,6.03
2019-04-22T13:41:17.291Z,5.87
2019-04-22T13:43:34.764Z,6.40
2019-04-22T13:46:06.012Z,6.10
2019-04-22T13:48:58.948Z,5.80
2019-04-22T13:51:36.197Z,5.67
2019-04-22T13:56:35.709Z,6.13
2019-04-22T13:58:52.827Z,6.40
2019-04-22T14:01:14.846Z,7.07
2019-04-22T14:04:14.398Z,6.47
2019-04-22T14:06:44.850Z,6.30
2019-04-22T14:09:16.718Z,6.50
2019-04-22T14:11:52.900Z,6.60
2019-04-22T14:14:17.727Z,7.00
2019-04-22T14:16:47.297Z,6.83
2019-04-22T14:19:18.262Z,7.03
2019-04-22T14:21:49.517Z,6.03
2019-04-22T14:24:19.818Z,7.20
2019-04-22T14:26:59.961Z,6.90
2019-04-22T14:29:21.755Z,6.97
2019-04-22T14:32:04.257Z,7.03
2019-04-22T14:34:24.145Z,6.30
2019-04-22T14:36:55.182Z,8.03
2019-04-22T14:39:26.146Z,6.63
2019-04-22T14:42:19.574Z,7.10
2019-04-22T14:47:19.939Z,7.03
2019-04-22T14:49:55.996Z,6.70
2019-04-22T14:52:22.733Z,7.10
2019-04-22T14:54:45.946Z,8.07
2019-04-22T14:57:05.179Z,9.00
2019-04-22T14:59:35.788Z,8.87
2019-04-22T15:02:07.676Z,7.90
2019-04-22T15:04:37.434Z,8.57
2019-04-22T15:07:08.583Z,7.37
2019-04-22T15:09:39.524Z,8.67
2019-04-22T15:12:18.419Z,8.00
2019-04-22T15:14:41.679Z,8.53
2019-04-22T15:17:42.892Z,8.47
2019-04-22T15:20:37.683Z,8.50
2019-04-22T15:23:08.489Z,7.73
2019-04-22T15:25:38.625Z,8.70
2019-04-22T15:28:09.237Z,7.60
2019-04-22T15:30:39.412Z,7.87
2019-04-22T15:33:09.702Z,8.13
2019-04-22T15:35:39.318Z,7.77
2019-04-22T15:38:09.051Z,7.37
2019-04-22T15:40:38.694Z,7.53
2019-04-22T15:43:08.774Z,8.23
2019-04-22T15:45:39.071Z,8.13
2019-04-22T15:48:10.295Z,7.60
2019-04-22T15:50:40.540Z,7.93
2019-04-22T15:53:11.540Z,7.57
2019-04-22T15:55:42.770Z,7.83
2019-04-22T15:58:12.350Z,7.63
2019-04-22T16:00:55.633Z,8.00
2019-04-22T16:03:14.304Z,8.23
2019-04-22T16:05:44.230Z,8.70
2019-04-22T16:08:14.989Z,9.20
2019-04-22T16:10:46.008Z,8.90
2019-04-22T16:13:22.335Z,9.10
2019-04-22T16:15:46.967Z,8.73
2019-04-22T16:18:18.034Z,9.70
2019-04-22T16:20:48.187Z,9.67
2019-04-22T16:23:36.267Z,9.10
2019-04-22T16:26:26.439Z,8.00
2019-04-22T16:28:58.072Z,9.37
2019-04-22T16:31:27.276Z,8.03
2019-04-22T16:33:58.316Z,7.80
2019-04-22T16:36:29.062Z,8.27
2019-04-22T16:38:58.740Z,6.57
2019-04-22T16:41:28.681Z,8.90
2019-04-22T16:43:58.784Z,9.03
2019-04-22T16:46:29.640Z,8.80
2019-04-22T16:48:59.349Z,8.23
2019-04-22T16:51:29.787Z,10.03
2019-04-22T16:54:00.015Z,9.10
2019-04-22T16:56:33.230Z,11.80
2019-04-22T16:59:01.013Z,8.93
2019-04-22T17:02:01.355Z,8.87
2019-04-22T17:04:48.936Z,8.30
2019-04-22T17:07:20.596Z,8.70
2019-04-22T17:09:50.125Z,8.13
2019-04-22T17:12:19.789Z,9.73
2019-04-22T17:14:54.769Z,9.37
2019-04-22T17:17:20.465Z,10.67
2019-04-22T17:19:51.376Z,10.20
2019-04-22T17:22:21.768Z,10.00
2019-04-22T17:24:51.845Z,8.63
2019-04-22T17:27:22.359Z,8.60
2019-04-22T17:29:52.485Z,9.83
2019-04-22T17:32:23.479Z,9.03
2019-04-22T17:34:53.860Z,8.67
2019-04-22T17:37:26.589Z,9.27
2019-04-22T17:40:10.128Z,9.40
2019-04-22T17:42:47.815Z,8.33
2019-04-22T17:45:29.451Z,8.87
2019-04-22T17:48:20.267Z,9.00
2019-04-22T17:50:52.037Z,11.10
2019-04-22T17:53:26.087Z,8.50
2019-04-22T17:55:56.813Z,8.47
2019-04-22T17:58:29.036Z,8.07
2019-04-22T18:00:56.717Z,7.53
2019-04-22T18:03:20.217Z,7.77
2019-04-22T18:05:45.885Z,8.43
2019-04-22T18:08:33.243Z,8.43
2019-04-22T18:10:59.857Z,8.67
2019-04-22T18:13:41.300Z,7.60
2019-04-22T18:16:05.454Z,8.10
2019-04-22T18:18:36.981Z,7.80
2019-04-22T18:21:00.714Z,7.73
2019-04-22T18:23:22.698Z,7.73
2019-04-22T18:26:05.119Z,7.60
2019-04-22T18:28:47.942Z,8.33
2019-04-22T18:31:06.300Z,7.87
2019-04-22T18:33:38.633Z,7.67
2019-04-22T18:36:11.261Z,7.83
2019-04-22T18:41:15.195Z,7.87
2019-04-22T18:43:48.314Z,7.40
2019-04-22T18:46:15.730Z,7.67
2019-04-22T18:48:46.442Z,7.27
2019-04-22T18:51:31.948Z,6.90
2019-04-22T18:54:21.189Z,7.03
2019-04-22T18:56:52.459Z,7.67
2019-04-22T18:59:12.416Z,7.43
2019-04-22T19:01:33.625Z,8.87
2019-04-22T19:04:11.371Z,8.00
2019-04-22T19:06:56.465Z,7.27
2019-04-22T19:09:36.174Z,7.33
2019-04-22T19:12:18.038Z,7.43
2019-04-22T19:14:43.618Z,7.83
2019-04-22T19:17:10.871Z,7.63
2019-04-22T19:19:56.174Z,7.20
2019-04-22T19:22:03.477Z,7.17
2019-04-22T19:24:34.494Z,8.20
2019-04-22T19:27:09.540Z,7.80
2019-04-22T19:29:45.103Z,7.80
2019-04-22T19:32:18.462Z,8.37
2019-04-22T19:34:44.320Z,8.40
2019-04-22T19:37:13.285Z,7.43
2019-04-22T19:39:52.649Z,8.23
2019-04-22T19:42:24.488Z,8.50
2019-04-22T19:44:53.452Z,9.13
2019-04-22T19:47:38.212Z,9.17
2019-04-22T19:49:57.914Z,9.27
2019-04-22T19:54:57.268Z,8.50
2019-04-22T19:57:22.537Z,10.17
2019-04-22T19:59:55.851Z,8.57
2019-04-22T20:02:45.195Z,11.07
2019-04-22T20:05:30.083Z,12.07
2019-04-22T20:07:58.894Z,10.10
2019-04-22T20:10:30.040Z,9.57
2019-04-22T20:13:05.055Z,9.40
2019-04-22T20:15:29.267Z,9.90
2019-04-22T20:18:21.730Z,8.97
2019-04-22T20:20:42.235Z,9.27
2019-04-22T20:23:05.169Z,9.30
2019-04-22T20:25:35.927Z,9.77
2019-04-22T20:28:15.077Z,9.70
2019-04-22T20:30:39.969Z,9.30
2019-04-22T20:33:13.877Z,9.37
2019-04-22T20:35:46.585Z,10.53
2019-04-22T20:38:13.541Z,10.63
2019-04-22T20:40:42.538Z,11.13
2019-04-22T20:43:26.173Z,11.00
2019-04-22T20:45:51.188Z,12.73
2019-04-22T20:48:07.875Z,11.00
2019-04-22T20:50:54.847Z,11.17
2019-04-22T20:53:28.109Z,10.23
2019-04-22T20:55:52.494Z,10.83
2019-04-22T20:58:28.618Z,10.40
2019-04-22T21:00:50.219Z,9.73
2019-04-22T21:03:20.875Z,9.50
2019-04-22T21:05:52.624Z,11.63
2019-04-22T21:08:36.633Z,14.17
2019-04-22T21:10:57.926Z,9.57
2019-04-22T21:13:27.850Z,10.20
2019-04-22T21:16:10.594Z,10.03
2019-04-22T21:18:30.540Z,11.50
2019-04-22T21:21:11.407Z,9.33
2019-04-22T21:23:36.613Z,8.63
2019-04-22T21:26:11.096Z,10.07
2019-04-22T21:28:42.967Z,13.87
2019-04-22T21:31:18.933Z,10.30
2019-04-22T21:33:47.239Z,8.37
2019-04-22T21:36:20.659Z,9.00
2019-04-22T21:38:48.375Z,8.33
2019-04-22T21:41:16.099Z,8.00
2019-04-22T21:43:54.767Z,8.93
2019-04-22T21:46:23.190Z,8.60
2019-04-22T21:48:53.088Z,7.50
2019-04-22T21:51:29.077Z,8.10
2019-04-22T21:59:01.859Z,8.27
2019-04-22T22:01:52.878Z,8.17
2019-04-22T22:04:16.987Z,7.87
2019-04-22T22:06:39.624Z,7.50
2019-04-22T22:09:20.484Z,7.47
2019-04-22T22:11:46.248Z,7.53
2019-04-22T22:14:20.839Z,7.47
2019-04-22T22:16:45.977Z,7.83
2019-04-22T22:19:24.008Z,7.80
2019-04-22T22:22:02.407Z,7.90
2019-04-22T22:24:28.920Z,7.80
2019-04-22T22:26:57.117Z,7.30
2019-04-22T22:29:36.949Z,7.63
2019-04-22T22:32:02.712Z,7.07
2019-04-22T22:34:26.725Z,7.87
2019-04-22T22:36:52.860Z,6.87
2019-04-22T22:39:24.902Z,6.80
2019-04-22T22:41:44.028Z,7.10
2019-04-22T22:44:23.499Z,7.40
2019-04-22T22:47:05.008Z,7.03
2019-04-22T22:49:42.855Z,7.23
2019-04-22T22:52:32.515Z,7.17
2019-04-22T22:54:43.978Z,7.87
2019-04-22T22:57:19.502Z,7.23
2019-04-22T22:59:42.999Z,7.27
2019-04-22T23:02:11.567Z,7.70
2019-04-22T23:04:46.002Z,7.00
2019-04-22T23:07:22.572Z,7.20
2019-04-22T23:09:47.343Z,7.33
2019-04-22T23:12:31.467Z,7.07
2019-04-22T23:14:51.462Z,7.37
2019-04-22T23:17:07.093Z,7.60
2019-04-22T23:19:33.697Z,7.20
2019-04-22T23:22:14.503Z,6.90
2019-04-22T23:24:50.575Z,6.93
2019-04-22T23:27:26.213Z,7.60
2019-04-22T23:30:15.655Z,7.33
2019-04-22T23:32:43.565Z,7.00
2019-04-22T23:35:46.654Z,6.73
2019-04-22T23:38:16.488Z,6.80
2019-04-22T23:40:51.815Z,6.93
2019-04-22T23:43:27.545Z,7.10
2019-04-22T23:45:56.423Z,6.87
2019-04-22T23:48:27.106Z,7.10
2019-04-22T23:51:07.256Z,6.90
2019-04-22T23:54:04.309Z,6.83
2019-04-22T23:56:09.233Z,7.67
